Weather at Santa Ana Del Yacuma Airport

Public forecast

Using degrees Celsius for public forecast. Weather courtesy of forecast.io.

Current aviation weather report (METAR) for Santa Ana Del Yacuma Airport

Retrieved 2021/06/19 15:00 UTC (17 minutes ago):

SLSA 191500Z 14008KT 9999 BKN015 OVC070 17/15 Q1019

Closest aviation forecast (TAF) to Santa Ana Del Yacuma Airport

Closest forecast is Teniente Av. Jorge Henrich Arauz Airport, 70.2 nm (130.0 km) SSE. Retrieved 2021/06/19 12:06 UTC (3 hours ago):

TAF SLTR 191050Z 1912/2012 16008KT 9999 SCT012 OVC070 TX21/1920Z TN14 /2010Z BECMG 1923/2001 00000KT BKN008